createdAt,value
2024-01-18T00:02:12.066Z,46.38
2024-01-18T00:04:38.696Z,43.00
2024-01-18T00:07:05.415Z,40.95
2024-01-18T00:09:32.194Z,45.65
2024-01-18T00:11:58.847Z,41.83
2024-01-18T00:14:25.377Z,42.80
2024-01-18T00:16:51.845Z,46.85
2024-01-18T00:19:18.464Z,48.17
2024-01-18T00:21:45.138Z,46.47
2024-01-18T00:24:11.766Z,39.50
2024-01-18T00:26:38.349Z,47.65
2024-01-18T00:29:04.923Z,47.58
2024-01-18T00:31:31.421Z,46.03
2024-01-18T00:34:00.820Z,45.20
2024-01-18T00:36:28.615Z,45.50
2024-01-18T00:38:55.724Z,45.33
2024-01-18T00:41:22.412Z,46.13
2024-01-18T00:43:49.617Z,41.67
2024-01-18T00:46:20.446Z,44.08
2024-01-18T00:48:47.159Z,40.05
2024-01-18T00:51:13.944Z,38.55
2024-01-18T00:53:40.402Z,44.17
2024-01-18T00:56:11.193Z,47.25
2024-01-18T00:58:38.592Z,46.20
2024-01-18T01:01:05.124Z,37.50
2024-01-18T01:03:31.835Z,43.40
2024-01-18T01:05:58.407Z,42.17
2024-01-18T01:08:24.940Z,39.63
2024-01-18T01:10:51.470Z,40.47
2024-01-18T01:13:17.950Z,41.33
2024-01-18T01:15:44.488Z,40.85
2024-01-18T01:18:12.626Z,42.75
2024-01-18T01:20:39.309Z,42.25
2024-01-18T01:23:06.004Z,42.70
2024-01-18T01:25:32.928Z,39.47
2024-01-18T01:27:59.454Z,42.83
2024-01-18T01:30:26.106Z,38.45
2024-01-18T01:32:52.779Z,37.28
2024-01-18T01:35:19.404Z,40.35
2024-01-18T01:37:45.980Z,38.67
2024-01-18T01:40:12.634Z,36.45
2024-01-18T01:42:39.181Z,40.90
2024-01-18T01:45:06.553Z,39.17
2024-01-18T01:47:33.208Z,38.92
2024-01-18T01:50:00.422Z,39.80
2024-01-18T01:52:29.127Z,38.70
2024-01-18T01:54:57.245Z,36.38
2024-01-18T01:57:25.810Z,36.67
2024-01-18T01:59:52.493Z,36.15
2024-01-18T02:02:23.155Z,34.30
2024-01-18T02:04:49.902Z,41.88
2024-01-18T02:07:16.536Z,37.67
2024-01-18T02:09:43.694Z,40.00
2024-01-18T02:14:38.114Z,35.80
2024-01-18T02:17:05.267Z,34.10
2024-01-18T02:19:32.190Z,32.63
2024-01-18T02:22:00.390Z,32.85
2024-01-18T02:24:34.836Z,36.97
2024-01-18T02:27:01.415Z,35.53
2024-01-18T02:29:27.952Z,37.15
2024-01-18T02:31:54.475Z,31.73
2024-01-18T02:34:21.148Z,37.30
2024-01-18T02:36:48.065Z,35.38
2024-01-18T02:39:14.694Z,32.55
2024-01-18T02:41:42.457Z,31.13
2024-01-18T02:44:09.430Z,30.85
2024-01-18T02:46:35.962Z,32.33
2024-01-18T02:49:02.446Z,33.60
2024-01-18T02:51:29.110Z,29.58
2024-01-18T02:53:55.711Z,32.67
2024-01-18T02:56:22.725Z,30.77
2024-01-18T02:58:49.314Z,33.53
2024-01-18T03:01:15.932Z,33.60
2024-01-18T03:03:42.580Z,29.50
2024-01-18T03:06:09.255Z,29.60
2024-01-18T03:08:37.445Z,32.85
2024-01-18T03:11:04.062Z,31.70
2024-01-18T03:13:30.623Z,32.83
2024-01-18T03:15:57.128Z,29.60
2024-01-18T03:18:23.673Z,31.05
2024-01-18T03:20:50.176Z,28.77
2024-01-18T03:23:17.527Z,31.42
2024-01-18T03:25:44.205Z,29.25
2024-01-18T03:28:10.822Z,31.52
2024-01-18T03:30:37.435Z,30.02
2024-01-18T03:33:04.389Z,29.83
2024-01-18T03:35:30.986Z,27.90
2024-01-18T03:37:57.501Z,27.88
2024-01-18T03:40:24.120Z,27.23
2024-01-18T03:42:50.653Z,26.02
2024-01-18T03:45:18.210Z,28.15
2024-01-18T03:47:47.980Z,29.08
2024-01-18T03:50:15.156Z,26.88
2024-01-18T03:52:41.744Z,25.40
2024-01-18T03:55:08.472Z,32.35
2024-01-18T03:57:35.245Z,30.90
2024-01-18T04:00:02.410Z,27.88
2024-01-18T04:02:29.062Z,29.15
2024-01-18T04:04:55.588Z,28.90
2024-01-18T04:07:23.403Z,25.05
2024-01-18T04:09:50.051Z,25.00
2024-01-18T04:12:17.501Z,26.58
2024-01-18T04:14:46.960Z,32.13
2024-01-18T04:17:13.589Z,25.13
2024-01-18T04:19:40.773Z,26.05
2024-01-18T04:22:07.893Z,26.85
2024-01-18T04:24:35.074Z,26.70
2024-01-18T04:27:01.721Z,26.02
2024-01-18T04:29:29.643Z,26.95
2024-01-18T04:31:56.660Z,32.60
2024-01-18T04:34:23.177Z,28.77
2024-01-18T04:36:49.692Z,26.40
2024-01-18T04:39:16.363Z,29.17
2024-01-18T04:41:42.927Z,24.52
2024-01-18T04:44:09.471Z,25.02
2024-01-18T04:46:36.167Z,24.45
2024-01-18T04:49:03.811Z,28.48
2024-01-18T04:51:30.480Z,24.27
2024-01-18T04:53:57.068Z,25.98
2024-01-18T04:56:23.827Z,23.92
2024-01-18T04:58:50.515Z,22.08
2024-01-18T05:01:17.056Z,23.55
2024-01-18T05:03:43.709Z,24.58
2024-01-18T05:06:11.100Z,21.83
2024-01-18T05:11:04.484Z,24.08
2024-01-18T05:13:31.024Z,25.10
2024-01-18T05:16:00.518Z,23.02
2024-01-18T05:18:27.181Z,22.83
2024-01-18T05:20:53.683Z,23.05
2024-01-18T05:23:20.147Z,19.73
2024-01-18T05:25:46.751Z,22.33
2024-01-18T05:28:13.288Z,20.75
2024-01-18T05:30:39.875Z,19.40
2024-01-18T05:33:06.535Z,22.85
2024-01-18T05:35:33.030Z,23.67
2024-01-18T05:37:59.539Z,20.23
2024-01-18T05:40:26.213Z,20.13
2024-01-18T05:42:53.045Z,19.88
2024-01-18T05:45:19.656Z,31.38
2024-01-18T05:47:46.187Z,39.60
2024-01-18T05:50:12.995Z,20.95
2024-01-18T05:52:39.584Z,22.52
2024-01-18T05:55:06.244Z,35.42
2024-01-18T05:57:33.306Z,27.70
2024-01-18T05:59:59.908Z,23.30
2024-01-18T06:02:26.425Z,24.27
2024-01-18T06:04:53.007Z,25.70
2024-01-18T06:07:19.808Z,26.25
2024-01-18T06:09:46.560Z,20.52
2024-01-18T06:12:13.088Z,29.95
2024-01-18T06:14:39.554Z,19.30
2024-01-18T06:17:06.179Z,23.48
2024-01-18T06:19:33.545Z,18.98
2024-01-18T06:24:29.000Z,24.67
2024-01-18T06:26:56.431Z,24.48
2024-01-18T06:29:27.832Z,24.65
2024-01-18T06:31:54.662Z,20.15
2024-01-18T06:34:21.485Z,22.90
2024-01-18T06:36:48.202Z,22.00
2024-01-18T06:39:17.111Z,27.15
2024-01-18T06:41:44.069Z,24.42
2024-01-18T06:44:11.267Z,27.60
2024-01-18T06:46:37.733Z,28.15
2024-01-18T06:49:04.763Z,35.92
2024-01-18T06:51:31.414Z,27.50
2024-01-18T06:53:58.025Z,25.48
2024-01-18T06:56:24.560Z,25.20
2024-01-18T06:58:51.342Z,31.88
2024-01-18T07:01:18.390Z,28.42
2024-01-18T07:03:45.092Z,27.50
2024-01-18T07:06:13.080Z,25.33
2024-01-18T07:08:39.732Z,23.35
2024-01-18T07:11:06.339Z,23.60
2024-01-18T07:13:33.138Z,28.80
2024-01-18T07:15:59.724Z,30.17
2024-01-18T07:18:27.200Z,24.75
2024-01-18T07:23:20.318Z,28.48
2024-01-18T07:25:47.812Z,30.90
2024-01-18T07:30:41.256Z,39.00
2024-01-18T07:33:08.020Z,36.42
2024-01-18T07:35:34.604Z,31.10
2024-01-18T07:38:01.101Z,29.33
2024-01-18T07:40:27.796Z,33.58
2024-01-18T07:42:55.136Z,33.95
2024-01-18T07:47:49.493Z,27.77
2024-01-18T07:50:29.100Z,30.58
2024-01-18T07:53:01.205Z,33.45
2024-01-18T07:55:27.950Z,32.33
2024-01-18T07:57:55.331Z,38.00
2024-01-18T08:00:22.351Z,39.33
2024-01-18T08:02:49.003Z,32.53
2024-01-18T08:05:15.634Z,29.00
2024-01-18T08:07:42.213Z,32.17
2024-01-18T08:10:10.034Z,38.15
2024-01-18T08:12:37.684Z,42.42
2024-01-18T08:15:05.724Z,67.22
2024-01-18T08:17:32.304Z,50.08
2024-01-18T08:19:58.930Z,43.28
2024-01-18T08:22:25.565Z,43.00
2024-01-18T08:24:52.253Z,43.58
2024-01-18T08:27:18.841Z,67.95
2024-01-18T08:29:45.442Z,50.97
2024-01-18T08:32:11.973Z,49.85
2024-01-18T08:34:38.525Z,56.67
2024-01-18T08:37:05.936Z,52.35
2024-01-18T08:42:00.610Z,47.28
2024-01-18T08:44:30.120Z,54.22
2024-01-18T08:46:57.214Z,90.15
2024-01-18T08:49:26.665Z,73.78
2024-01-18T08:51:54.311Z,52.55
2024-01-18T08:54:22.318Z,50.97
2024-01-18T08:56:49.517Z,46.60
2024-01-18T08:59:16.277Z,71.95
2024-01-18T09:01:43.397Z,55.60
2024-01-18T09:04:10.140Z,48.17
2024-01-18T09:06:38.237Z,55.08
2024-01-18T09:09:05.607Z,50.80
2024-01-18T09:11:32.155Z,51.42
2024-01-18T09:13:59.281Z,50.22
2024-01-18T09:16:25.831Z,55.10
2024-01-18T09:19:01.447Z,51.53
2024-01-18T09:21:46.231Z,47.40
2024-01-18T09:24:13.671Z,53.63
2024-01-18T09:26:40.639Z,248.63
2024-01-18T09:29:07.268Z,108.18
2024-01-18T09:31:40.860Z,62.75
2024-01-18T09:34:09.708Z,52.20
2024-01-18T09:36:36.887Z,54.88
2024-01-18T09:39:04.237Z,60.25
2024-01-18T09:41:31.903Z,50.95
2024-01-18T09:44:04.568Z,51.55
2024-01-18T09:46:31.776Z,56.42
2024-01-18T09:49:02.084Z,52.53
2024-01-18T09:51:30.837Z,57.58
2024-01-18T09:53:57.622Z,44.38
2024-01-18T09:56:27.228Z,57.13
2024-01-18T09:58:54.142Z,48.53
2024-01-18T10:01:22.839Z,56.80
2024-01-18T10:03:50.531Z,56.35
2024-01-18T10:06:19.039Z,60.35
2024-01-18T10:08:46.577Z,58.03
2024-01-18T10:11:13.360Z,57.33
2024-01-18T10:13:53.493Z,64.10
2024-01-18T10:16:31.125Z,53.85
2024-01-18T10:18:58.689Z,74.82
2024-01-18T10:21:25.723Z,92.30
2024-01-18T10:23:54.332Z,62.22
2024-01-18T10:26:28.334Z,64.75
2024-01-18T10:28:54.858Z,55.97
2024-01-18T10:31:22.083Z,59.13
2024-01-18T10:33:48.980Z,57.30
2024-01-18T10:36:16.059Z,63.95
2024-01-18T10:38:43.042Z,72.25
2024-01-18T10:41:09.920Z,61.45
2024-01-18T10:43:36.985Z,66.30
2024-01-18T10:46:04.868Z,78.90
2024-01-18T10:48:32.595Z,84.85
2024-01-18T10:51:00.433Z,74.50
2024-01-18T10:53:31.135Z,80.30
2024-01-18T10:55:57.964Z,78.63
2024-01-18T10:58:24.552Z,61.90
2024-01-18T11:00:51.992Z,72.88
2024-01-18T11:03:18.753Z,67.28
2024-01-18T11:05:52.308Z,83.28
2024-01-18T11:08:19.256Z,65.53
2024-01-18T11:10:48.088Z,56.92
2024-01-18T11:13:16.562Z,54.10
2024-01-18T11:15:45.527Z,61.55
2024-01-18T11:18:14.049Z,57.58
2024-01-18T11:20:58.679Z,55.63
2024-01-18T11:23:34.132Z,57.40
2024-01-18T11:26:00.737Z,63.78
2024-01-18T11:28:28.029Z,68.72
2024-01-18T11:33:21.937Z,57.45
2024-01-18T11:35:51.994Z,66.78
2024-01-18T11:38:19.579Z,67.50
2024-01-18T11:40:47.930Z,65.22
2024-01-18T11:43:15.027Z,66.90
2024-01-18T11:45:45.617Z,65.95
2024-01-18T11:48:13.349Z,72.80
2024-01-18T11:50:40.135Z,71.57
2024-01-18T11:53:10.152Z,60.60
2024-01-18T11:55:44.564Z,50.13
2024-01-18T11:58:11.500Z,38.03
2024-01-18T12:00:38.188Z,29.48
2024-01-18T12:03:06.834Z,24.95
2024-01-18T12:05:33.371Z,25.85
2024-01-18T12:07:59.994Z,25.05
2024-01-18T12:10:27.430Z,22.90
2024-01-18T12:12:55.654Z,23.75
2024-01-18T12:15:22.851Z,27.48
2024-01-18T12:17:49.702Z,24.45
2024-01-18T12:20:18.653Z,50.85
2024-01-18T12:22:45.978Z,161.95
2024-01-18T12:25:12.474Z,55.78
2024-01-18T12:27:40.840Z,37.35
2024-01-18T12:30:08.233Z,39.70
2024-01-18T12:32:36.881Z,31.38
2024-01-18T12:35:03.928Z,23.23
2024-01-18T12:37:30.623Z,22.15
2024-01-18T12:39:57.394Z,35.08
2024-01-18T12:42:23.933Z,39.45
2024-01-18T12:44:59.021Z,40.85
2024-01-18T12:47:25.683Z,38.53
2024-01-18T12:49:56.361Z,42.65
2024-01-18T12:52:31.213Z,41.35
2024-01-18T12:54:59.372Z,41.88
2024-01-18T12:57:27.709Z,45.08
2024-01-18T12:59:54.397Z,44.03
2024-01-18T13:02:25.202Z,42.25
2024-01-18T13:04:52.315Z,45.40
2024-01-18T13:07:19.847Z,41.90
2024-01-18T13:09:47.340Z,43.90
2024-01-18T13:12:14.041Z,43.75
2024-01-18T13:14:40.556Z,48.20
2024-01-18T13:17:07.009Z,44.65
2024-01-18T13:19:33.942Z,44.85
2024-01-18T13:22:00.712Z,43.05
2024-01-18T13:24:29.449Z,43.17
2024-01-18T13:26:56.072Z,39.58
2024-01-18T13:29:22.608Z,45.08
2024-01-18T13:31:49.489Z,41.47
2024-01-18T13:34:17.206Z,48.30
2024-01-18T13:36:44.619Z,48.55
2024-01-18T13:39:12.218Z,51.45
2024-01-18T13:41:38.936Z,50.05
2024-01-18T13:44:05.665Z,44.58
2024-01-18T13:46:33.207Z,45.22
2024-01-18T13:49:00.589Z,46.03
2024-01-18T13:53:53.827Z,39.42
2024-01-18T13:56:21.674Z,40.80
2024-01-18T13:58:48.644Z,43.70
2024-01-18T14:01:15.684Z,45.10
2024-01-18T14:03:46.817Z,46.75
2024-01-18T14:06:17.530Z,48.90
2024-01-18T14:08:48.151Z,48.20
2024-01-18T14:11:16.261Z,43.25
2024-01-18T14:13:43.590Z,47.65
2024-01-18T14:16:13.074Z,44.35
2024-01-18T14:18:40.730Z,45.38
2024-01-18T14:21:08.639Z,48.28
2024-01-18T14:23:36.450Z,41.95
2024-01-18T14:26:04.795Z,40.20
2024-01-18T14:28:32.482Z,41.30
2024-01-18T14:30:59.192Z,46.50
2024-01-18T14:33:25.947Z,41.38
2024-01-18T14:35:52.619Z,41.92
2024-01-18T14:38:19.148Z,41.45
2024-01-18T14:40:47.384Z,40.50
2024-01-18T14:43:15.446Z,49.58
2024-01-18T14:45:42.805Z,39.47
2024-01-18T14:48:18.038Z,32.08
2024-01-18T14:50:46.157Z,30.85
2024-01-18T14:53:14.441Z,34.65
2024-01-18T14:55:41.243Z,36.63
2024-01-18T14:58:07.955Z,33.60
2024-01-18T15:00:38.947Z,32.17
2024-01-18T15:03:06.664Z,42.33
2024-01-18T15:05:33.439Z,39.22
2024-01-18T15:08:00.516Z,37.42
2024-01-18T15:10:27.064Z,36.65
2024-01-18T15:12:53.681Z,45.15
2024-01-18T15:15:20.287Z,42.92
2024-01-18T15:17:48.826Z,40.63
2024-01-18T15:20:17.387Z,37.78
2024-01-18T15:22:43.983Z,40.03
2024-01-18T15:25:11.398Z,39.47
2024-01-18T15:27:38.851Z,41.00
2024-01-18T15:30:06.525Z,40.53
2024-01-18T15:32:36.448Z,47.75
2024-01-18T15:35:04.837Z,45.35
2024-01-18T15:37:31.644Z,41.95
2024-01-18T15:39:58.323Z,45.15
2024-01-18T15:42:24.878Z,41.67
2024-01-18T15:44:51.490Z,44.83
2024-01-18T15:47:18.162Z,45.53
2024-01-18T15:49:45.058Z,40.45
2024-01-18T15:52:11.900Z,40.38
2024-01-18T15:54:38.548Z,39.67
2024-01-18T15:57:08.272Z,41.85
2024-01-18T15:59:34.886Z,45.30
2024-01-18T16:02:01.438Z,43.28
2024-01-18T16:04:28.314Z,46.35
2024-01-18T16:06:55.185Z,46.75
2024-01-18T16:09:22.119Z,46.65
2024-01-18T16:11:48.800Z,51.20
2024-01-18T16:14:15.301Z,50.78
2024-01-18T16:16:41.838Z,46.50
2024-01-18T16:19:08.579Z,50.17
2024-01-18T16:21:35.244Z,52.50
2024-01-18T16:24:01.880Z,64.15
2024-01-18T16:26:28.939Z,51.55
2024-01-18T16:28:55.452Z,51.05
2024-01-18T16:31:22.026Z,50.58
2024-01-18T16:33:49.293Z,59.80
2024-01-18T16:36:17.112Z,52.95
2024-01-18T16:38:43.712Z,58.40
2024-01-18T16:41:10.241Z,52.70
2024-01-18T16:43:38.139Z,54.08
2024-01-18T16:46:05.082Z,52.00
2024-01-18T16:48:31.827Z,49.13
2024-01-18T16:50:58.458Z,50.60
2024-01-18T16:53:25.074Z,61.63
2024-01-18T16:55:51.630Z,53.30
2024-01-18T16:58:19.059Z,54.25
2024-01-18T17:00:45.518Z,65.00
2024-01-18T17:03:12.107Z,67.07
2024-01-18T17:05:39.001Z,56.03
2024-01-18T17:08:08.289Z,51.97
2024-01-18T17:10:35.938Z,63.10
2024-01-18T17:13:02.814Z,72.60
2024-01-18T17:15:29.601Z,62.30
2024-01-18T17:17:56.386Z,52.70
2024-01-18T17:20:23.032Z,65.28
2024-01-18T17:22:49.548Z,55.40
2024-01-18T17:25:16.219Z,60.65
2024-01-18T17:27:42.725Z,114.70
2024-01-18T17:30:09.431Z,70.65
2024-01-18T17:32:36.002Z,77.70
2024-01-18T17:35:02.560Z,75.05
2024-01-18T17:37:29.081Z,106.70
2024-01-18T17:39:56.097Z,123.97
2024-01-18T17:42:22.587Z,122.03
2024-01-18T17:44:49.126Z,90.10
2024-01-18T17:47:16.321Z,63.00
2024-01-18T17:49:43.280Z,86.13
2024-01-18T17:52:09.935Z,80.65
2024-01-18T17:54:37.236Z,82.50
2024-01-18T17:57:04.718Z,74.93
2024-01-18T17:59:31.230Z,84.65
2024-01-18T18:01:58.946Z,115.78
2024-01-18T18:04:25.513Z,101.32
2024-01-18T18:06:53.978Z,104.15
2024-01-18T18:09:20.769Z,81.65
2024-01-18T18:11:47.452Z,86.15
2024-01-18T18:14:14.357Z,60.22
2024-01-18T18:16:40.919Z,75.00
2024-01-18T18:19:07.470Z,54.67
2024-01-18T18:21:34.000Z,49.60
2024-01-18T18:24:00.488Z,49.58
2024-01-18T18:26:27.837Z,58.40
2024-01-18T18:31:23.564Z,53.53
2024-01-18T18:33:50.276Z,50.47
2024-01-18T18:36:16.913Z,50.83
2024-01-18T18:38:43.518Z,52.35
2024-01-18T18:41:10.194Z,55.63
2024-01-18T18:43:40.810Z,49.80
2024-01-18T18:46:08.978Z,48.03
2024-01-18T18:48:36.866Z,48.15
2024-01-18T18:51:04.465Z,46.40
2024-01-18T18:55:57.867Z,45.38
2024-01-18T18:58:24.545Z,44.55
2024-01-18T19:00:51.111Z,44.90
2024-01-18T19:03:18.198Z,41.70
2024-01-18T19:05:48.014Z,47.70
2024-01-18T19:08:14.640Z,46.60
2024-01-18T19:10:41.129Z,42.85
2024-01-18T19:13:07.616Z,51.85
2024-01-18T19:15:34.743Z,56.33
2024-01-18T19:18:01.489Z,47.13
2024-01-18T19:20:28.475Z,50.33
2024-01-18T19:22:55.305Z,53.38
2024-01-18T19:25:21.893Z,56.03
2024-01-18T19:27:48.381Z,53.05
2024-01-18T19:30:17.405Z,56.40
2024-01-18T19:32:44.209Z,53.90
2024-01-18T19:35:12.991Z,50.75
2024-01-18T19:37:39.742Z,48.65
2024-01-18T19:40:07.638Z,54.88
2024-01-18T19:42:35.326Z,57.38
2024-01-18T19:45:02.083Z,50.00
2024-01-18T19:47:28.840Z,51.15
2024-01-18T19:49:55.428Z,50.70
2024-01-18T19:52:22.306Z,47.83
2024-01-18T19:54:49.953Z,48.28
2024-01-18T19:57:17.518Z,45.88
2024-01-18T19:59:44.313Z,42.85
2024-01-18T20:02:11.039Z,40.08
2024-01-18T20:04:39.105Z,44.10
2024-01-18T20:07:06.782Z,40.92
2024-01-18T20:09:34.504Z,40.05
2024-01-18T20:12:01.620Z,33.53
2024-01-18T20:14:28.495Z,36.78
2024-01-18T20:16:55.108Z,34.67
2024-01-18T20:19:21.924Z,34.40
2024-01-18T20:21:49.272Z,28.02
2024-01-18T20:24:16.683Z,26.17
2024-01-18T20:26:43.617Z,29.27
2024-01-18T20:29:10.674Z,32.38
2024-01-18T20:31:43.039Z,31.20
2024-01-18T20:34:10.713Z,28.60
2024-01-18T20:36:37.361Z,27.70
2024-01-18T20:39:04.834Z,25.38
2024-01-18T20:41:32.323Z,23.95
2024-01-18T20:43:58.977Z,42.50
2024-01-18T20:46:26.271Z,29.10
2024-01-18T20:48:52.912Z,31.83
2024-01-18T20:51:19.468Z,37.35
2024-01-18T20:53:46.058Z,29.73
2024-01-18T20:56:12.614Z,27.92
2024-01-18T20:58:39.120Z,34.40
2024-01-18T21:01:05.612Z,29.83
2024-01-18T21:03:32.342Z,30.77
2024-01-18T21:05:58.864Z,29.92
2024-01-18T21:08:25.446Z,27.40
2024-01-18T21:10:51.975Z,25.88
2024-01-18T21:13:18.476Z,28.25
2024-01-18T21:15:45.977Z,26.45
2024-01-18T21:18:12.676Z,32.58
2024-01-18T21:20:39.341Z,31.83
2024-01-18T21:23:05.933Z,29.08
2024-01-18T21:25:32.571Z,37.28
2024-01-18T21:27:59.107Z,38.97
2024-01-18T21:30:26.495Z,39.13
2024-01-18T21:37:46.633Z,57.15
2024-01-18T21:40:13.380Z,37.60
2024-01-18T21:42:39.891Z,50.75
2024-01-18T21:45:10.802Z,48.83
2024-01-18T21:47:37.423Z,54.88
2024-01-18T21:50:04.781Z,57.42
2024-01-18T21:54:58.585Z,39.20
2024-01-18T21:57:25.365Z,57.80
2024-01-18T21:59:52.256Z,46.13
2024-01-18T22:02:20.099Z,41.53
2024-01-18T22:04:46.935Z,56.05
2024-01-18T22:07:13.454Z,38.30
2024-01-18T22:09:42.570Z,50.30
2024-01-18T22:12:10.504Z,62.08
2024-01-18T22:14:37.038Z,47.17
2024-01-18T22:17:03.563Z,46.78
2024-01-18T22:19:42.486Z,47.53
2024-01-18T22:22:13.978Z,46.25
2024-01-18T22:24:40.453Z,50.05
2024-01-18T22:27:07.047Z,42.88
2024-01-18T22:29:33.634Z,41.03
2024-01-18T22:32:00.202Z,35.90
2024-01-18T22:34:26.674Z,38.83
2024-01-18T22:36:53.122Z,36.13
2024-01-18T22:39:19.610Z,35.03
2024-01-18T22:41:46.313Z,33.72
2024-01-18T22:44:12.884Z,32.35
2024-01-18T22:46:39.560Z,33.67
2024-01-18T22:49:06.676Z,38.20
2024-01-18T22:51:33.953Z,37.50
2024-01-18T22:54:01.809Z,32.45
2024-01-18T22:56:28.534Z,31.77
2024-01-18T22:58:55.122Z,30.55
2024-01-18T23:01:21.780Z,31.55
2024-01-18T23:03:49.227Z,30.73
2024-01-18T23:08:42.933Z,29.45
2024-01-18T23:11:10.048Z,28.70
2024-01-18T23:13:36.608Z,24.58
2024-01-18T23:16:04.496Z,23.27
2024-01-18T23:18:32.373Z,20.58
2024-01-18T23:20:58.858Z,21.23
2024-01-18T23:23:25.342Z,20.40
2024-01-18T23:25:51.877Z,20.95
2024-01-18T23:28:18.362Z,21.70
2024-01-18T23:30:44.860Z,22.75
2024-01-18T23:33:11.403Z,22.80
2024-01-18T23:35:38.026Z,19.90
2024-01-18T23:38:04.734Z,17.00
2024-01-18T23:40:31.209Z,18.15
2024-01-18T23:42:57.893Z,19.85
2024-01-18T23:45:24.392Z,21.25
2024-01-18T23:47:50.976Z,21.58
2024-01-18T23:50:17.764Z,26.60
2024-01-18T23:52:44.327Z,26.75
2024-01-18T23:55:10.903Z,22.45
2024-01-18T23:57:37.503Z,28.98
